createdAt,value
2022-11-14T00:01:28.164Z,69.85
2022-11-14T00:04:13.784Z,69.78
2022-11-14T00:06:59.246Z,70.00
2022-11-14T00:09:44.860Z,70.13
2022-11-14T00:12:30.841Z,70.70
2022-11-14T00:15:16.919Z,71.06
2022-11-14T00:18:02.905Z,71.38
2022-11-14T00:20:52.794Z,71.15
2022-11-14T00:23:38.772Z,71.45
2022-11-14T00:26:24.342Z,71.33
2022-11-14T00:29:12.008Z,71.51
2022-11-14T00:31:57.530Z,71.54
2022-11-14T00:34:43.555Z,71.54
2022-11-14T00:37:30.375Z,71.30
2022-11-14T00:40:16.621Z,71.63
2022-11-14T00:43:02.307Z,71.91
2022-11-14T00:45:48.356Z,71.65
2022-11-14T00:48:34.271Z,71.85
2022-11-14T00:51:19.747Z,71.55
2022-11-14T00:54:05.554Z,71.68
2022-11-14T00:56:54.165Z,71.55
2022-11-14T00:59:39.591Z,71.51
2022-11-14T01:02:25.168Z,71.13
2022-11-14T01:05:10.657Z,71.10
2022-11-14T01:07:56.415Z,70.86
2022-11-14T01:10:43.748Z,70.86
2022-11-14T01:13:32.846Z,71.07
2022-11-14T01:16:20.101Z,70.75
2022-11-14T01:19:06.336Z,70.53
2022-11-14T01:21:51.998Z,70.38
2022-11-14T01:24:37.886Z,70.33
2022-11-14T01:27:23.301Z,70.29
2022-11-14T01:30:09.063Z,70.04
2022-11-14T01:32:56.167Z,69.90
2022-11-14T01:35:41.665Z,69.80
2022-11-14T01:38:27.516Z,69.58
2022-11-14T01:41:15.521Z,69.70
2022-11-14T01:44:05.563Z,69.44
2022-11-14T01:46:56.845Z,69.04
2022-11-14T01:49:47.763Z,68.42
2022-11-14T01:52:40.781Z,69.19
2022-11-14T01:55:27.599Z,69.37
2022-11-14T01:58:14.492Z,69.45
2022-11-14T02:01:00.741Z,69.20
2022-11-14T02:03:49.286Z,69.54
2022-11-14T02:06:36.673Z,69.33
2022-11-14T02:09:22.583Z,69.29
2022-11-14T02:12:12.443Z,69.02
2022-11-14T02:14:59.441Z,68.54
2022-11-14T02:17:45.481Z,68.94
2022-11-14T02:20:36.077Z,68.61
2022-11-14T02:23:32.186Z,68.18
2022-11-14T02:26:19.952Z,68.73
2022-11-14T02:29:10.038Z,68.13
2022-11-14T02:31:55.974Z,68.10
2022-11-14T02:34:41.673Z,68.27
2022-11-14T02:37:27.811Z,67.55
2022-11-14T02:40:13.433Z,67.13
2022-11-14T02:42:58.932Z,67.23
2022-11-14T02:45:44.592Z,66.18
2022-11-14T02:48:30.445Z,66.22
2022-11-14T02:51:16.309Z,65.40
2022-11-14T02:54:02.085Z,65.52
2022-11-14T02:56:47.753Z,65.77
2022-11-14T02:59:33.229Z,65.81
2022-11-14T03:02:18.583Z,65.53
2022-11-14T03:05:04.658Z,65.85
2022-11-14T03:07:53.933Z,65.23
2022-11-14T03:10:39.247Z,64.46
2022-11-14T03:13:30.322Z,64.13
2022-11-14T03:16:16.445Z,64.60
2022-11-14T03:19:02.667Z,64.87
2022-11-14T03:21:48.355Z,64.53
2022-11-14T03:24:34.098Z,64.63
2022-11-14T03:27:20.972Z,64.32
2022-11-14T03:30:07.172Z,64.63
2022-11-14T03:32:52.523Z,64.42
2022-11-14T03:35:43.003Z,63.54
2022-11-14T03:38:29.244Z,64.02
2022-11-14T03:41:15.186Z,64.32
2022-11-14T03:44:00.848Z,63.85
2022-11-14T03:46:46.763Z,63.86
2022-11-14T03:49:32.643Z,62.83
2022-11-14T03:52:18.405Z,63.24
2022-11-14T03:55:04.356Z,63.34
2022-11-14T03:57:50.181Z,63.18
2022-11-14T04:00:36.023Z,62.58
2022-11-14T04:03:22.085Z,63.16
2022-11-14T04:06:07.462Z,63.27
2022-11-14T04:08:53.150Z,62.77
2022-11-14T04:11:38.608Z,62.93
2022-11-14T04:14:24.028Z,63.01
2022-11-14T04:17:09.809Z,62.98
2022-11-14T04:19:56.217Z,62.66
2022-11-14T04:22:42.006Z,62.72
2022-11-14T04:25:27.588Z,62.56
2022-11-14T04:28:13.711Z,62.84
2022-11-14T04:31:00.594Z,62.62
2022-11-14T04:33:46.063Z,62.72
2022-11-14T04:36:31.490Z,61.92
2022-11-14T04:39:18.365Z,62.23
2022-11-14T04:42:04.483Z,61.97
2022-11-14T04:44:50.370Z,62.42
2022-11-14T04:47:38.033Z,61.96
2022-11-14T04:50:23.619Z,62.17
2022-11-14T04:53:09.274Z,62.04
2022-11-14T04:55:54.824Z,62.07
2022-11-14T04:58:40.516Z,61.94
2022-11-14T05:01:26.100Z,61.75
2022-11-14T05:04:11.479Z,61.78
2022-11-14T05:06:57.401Z,61.79
2022-11-14T05:09:42.776Z,61.61
2022-11-14T05:12:30.092Z,62.07
2022-11-14T05:15:15.938Z,62.34
2022-11-14T05:18:01.712Z,62.11
2022-11-14T05:20:47.434Z,61.94
2022-11-14T05:23:33.417Z,62.20
2022-11-14T05:26:19.535Z,61.77
2022-11-14T05:29:06.001Z,61.93
2022-11-14T05:31:51.578Z,62.06
2022-11-14T05:34:43.683Z,61.83
2022-11-14T05:37:29.797Z,62.09
2022-11-14T05:40:17.166Z,62.29
2022-11-14T05:43:02.607Z,62.17
2022-11-14T05:45:48.321Z,62.18
2022-11-14T05:48:34.120Z,62.02
2022-11-14T05:51:19.809Z,62.08
2022-11-14T05:54:05.819Z,62.21
2022-11-14T05:56:51.556Z,62.40
2022-11-14T05:59:37.280Z,62.49
2022-11-14T06:02:23.572Z,62.52
2022-11-14T06:05:09.244Z,62.41
2022-11-14T06:07:59.329Z,62.38
2022-11-14T06:10:44.872Z,62.62
2022-11-14T06:13:31.492Z,62.63
2022-11-14T06:16:19.385Z,62.25
2022-11-14T06:19:05.593Z,62.06
2022-11-14T06:21:51.260Z,62.32
2022-11-14T06:24:37.329Z,62.22
2022-11-14T06:27:23.176Z,61.96
2022-11-14T06:30:09.372Z,62.31
2022-11-14T06:33:03.856Z,61.73
2022-11-14T06:35:49.077Z,61.32
2022-11-14T06:38:36.844Z,62.14
2022-11-14T06:41:23.320Z,61.92
2022-11-14T06:44:09.940Z,61.79
2022-11-14T06:46:56.685Z,61.70
2022-11-14T06:49:42.232Z,61.45
2022-11-14T06:52:27.765Z,61.52
2022-11-14T06:55:13.617Z,61.33
2022-11-14T06:58:02.339Z,61.03
2022-11-14T07:00:47.825Z,61.59
2022-11-14T07:03:34.345Z,61.25
2022-11-14T07:06:26.006Z,60.68
2022-11-14T07:09:11.603Z,60.81
2022-11-14T07:11:57.356Z,61.09
2022-11-14T07:14:42.907Z,60.94
2022-11-14T07:17:31.324Z,60.92
2022-11-14T07:20:18.715Z,60.66
2022-11-14T07:23:04.259Z,60.95
2022-11-14T07:25:49.816Z,60.84
2022-11-14T07:28:37.497Z,60.55
2022-11-14T07:31:23.234Z,60.53
2022-11-14T07:34:09.301Z,60.33
2022-11-14T07:36:55.323Z,60.47
2022-11-14T07:39:40.717Z,60.47
2022-11-14T07:42:29.920Z,59.86
2022-11-14T07:45:16.052Z,60.12
2022-11-14T07:48:02.457Z,59.89
2022-11-14T07:50:48.235Z,60.05
2022-11-14T07:53:34.587Z,59.96
2022-11-14T07:56:20.429Z,59.97
2022-11-14T07:59:06.024Z,59.63
2022-11-14T08:01:51.758Z,59.53
2022-11-14T08:04:37.400Z,59.29
2022-11-14T08:07:22.981Z,59.59
2022-11-14T08:10:09.301Z,59.40
2022-11-14T08:13:32.167Z,58.64
2022-11-14T08:16:13.670Z,59.39
2022-11-14T08:18:59.886Z,59.48
2022-11-14T08:21:45.594Z,59.39
2022-11-14T08:24:31.253Z,59.17
2022-11-14T08:27:16.728Z,59.47
2022-11-14T08:30:02.485Z,58.45
2022-11-14T08:32:48.007Z,58.70
2022-11-14T08:35:34.116Z,58.72
2022-11-14T08:38:19.944Z,59.15
2022-11-14T08:41:05.553Z,58.78
2022-11-14T08:43:51.297Z,58.73
2022-11-14T08:46:36.726Z,58.40
2022-11-14T08:49:22.590Z,58.61
2022-11-14T08:52:11.208Z,58.33
2022-11-14T08:55:00.925Z,58.50
2022-11-14T08:57:49.602Z,58.50
2022-11-14T09:00:35.748Z,57.94
2022-11-14T09:03:21.229Z,58.25
2022-11-14T09:06:07.148Z,58.07
2022-11-14T09:08:56.215Z,57.45
2022-11-14T09:11:41.688Z,57.71
2022-11-14T09:14:27.334Z,58.02
2022-11-14T09:17:12.955Z,57.90
2022-11-14T09:19:58.597Z,57.67
2022-11-14T09:22:44.037Z,57.45
2022-11-14T09:25:30.529Z,57.47
2022-11-14T09:28:16.002Z,57.80
2022-11-14T09:31:06.841Z,57.44
2022-11-14T09:33:52.456Z,57.66
2022-11-14T09:36:37.814Z,57.51
2022-11-14T09:39:23.700Z,57.77
2022-11-14T09:42:18.507Z,57.71
2022-11-14T09:45:10.773Z,57.60
2022-11-14T09:48:06.015Z,57.37
2022-11-14T09:51:08.440Z,57.18
2022-11-14T09:54:07.019Z,57.06
2022-11-14T09:56:54.296Z,57.70
2022-11-14T09:59:39.893Z,57.34
2022-11-14T10:02:37.007Z,57.17
2022-11-14T10:05:36.932Z,56.96
2022-11-14T10:08:41.031Z,56.23
2022-11-14T10:11:44.793Z,57.11
2022-11-14T10:15:00.150Z,56.82
2022-11-14T10:17:51.436Z,56.74
2022-11-14T10:21:08.053Z,55.61
2022-11-14T10:24:03.199Z,56.67
2022-11-14T10:27:02.255Z,56.52
2022-11-14T10:30:02.693Z,55.82
2022-11-14T10:33:03.411Z,56.02
2022-11-14T10:35:56.843Z,56.41
2022-11-14T10:38:54.066Z,55.79
2022-11-14T10:41:56.726Z,57.09
2022-11-14T10:45:05.483Z,56.10
2022-11-14T10:48:03.092Z,55.93
2022-11-14T10:50:56.181Z,56.53
2022-11-14T10:53:53.277Z,56.54
2022-11-14T10:56:48.394Z,56.49
2022-11-14T10:59:34.448Z,57.29
2022-11-14T11:02:19.909Z,56.82
2022-11-14T11:05:17.372Z,56.38
2022-11-14T11:08:41.837Z,56.48
2022-11-14T11:11:30.093Z,56.29
2022-11-14T11:14:20.058Z,56.12
2022-11-14T11:17:11.514Z,56.16
2022-11-14T11:20:25.766Z,56.17
2022-11-14T11:23:11.144Z,56.89
2022-11-14T11:26:07.875Z,56.24
2022-11-14T11:29:09.763Z,55.97
2022-11-14T11:31:58.426Z,56.88
2022-11-14T11:34:44.798Z,56.67
2022-11-14T11:37:41.869Z,56.46
2022-11-14T11:40:29.221Z,56.50
2022-11-14T11:43:38.864Z,55.38
2022-11-14T11:46:42.726Z,56.94
2022-11-14T11:49:31.135Z,56.22
2022-11-14T11:52:28.188Z,56.49
2022-11-14T11:55:27.350Z,56.06
2022-11-14T11:58:22.341Z,56.30
2022-11-14T12:01:12.066Z,56.61
2022-11-14T12:03:58.790Z,57.32
2022-11-14T12:07:08.645Z,56.09
2022-11-14T12:10:11.284Z,56.88
2022-11-14T12:13:00.104Z,57.09
2022-11-14T12:15:53.812Z,56.26
2022-11-14T12:18:47.967Z,57.04
2022-11-14T12:21:48.519Z,56.60
2022-11-14T12:24:52.367Z,57.16
2022-11-14T12:27:43.769Z,56.74
2022-11-14T12:30:31.903Z,56.82
2022-11-14T12:33:30.224Z,56.63
2022-11-14T12:36:16.036Z,56.94
2022-11-14T12:39:02.444Z,57.20
2022-11-14T12:41:48.916Z,57.07
2022-11-14T12:44:38.018Z,57.30
2022-11-14T12:47:28.266Z,56.60
2022-11-14T12:50:40.011Z,55.58
2022-11-14T12:53:37.398Z,56.33
2022-11-14T12:56:32.011Z,56.66
2022-11-14T12:59:20.428Z,56.11
2022-11-14T13:02:26.659Z,56.37
2022-11-14T13:05:37.228Z,56.33
2022-11-14T13:08:47.590Z,56.55
2022-11-14T13:12:01.140Z,56.85
2022-11-14T13:15:15.669Z,56.89
2022-11-14T13:18:42.212Z,56.56
2022-11-14T13:21:46.249Z,57.30
2022-11-14T13:25:00.023Z,56.59
2022-11-14T13:28:06.531Z,57.37
2022-11-14T13:31:15.623Z,56.28
2022-11-14T13:34:21.715Z,57.62
2022-11-14T13:37:32.418Z,57.25
2022-11-14T13:40:36.584Z,57.63
2022-11-14T13:43:31.265Z,57.48
2022-11-14T13:46:20.413Z,57.92
2022-11-14T13:49:43.748Z,57.50
2022-11-14T13:52:40.336Z,57.93
2022-11-14T13:55:47.427Z,57.89
2022-11-14T13:59:14.352Z,57.92
2022-11-14T14:02:11.827Z,57.79
2022-11-14T14:05:10.910Z,58.36
2022-11-14T14:08:11.752Z,57.92
2022-11-14T14:11:23.744Z,57.88
2022-11-14T14:14:24.563Z,58.30
2022-11-14T14:17:17.603Z,58.18
2022-11-14T14:20:18.744Z,58.00
2022-11-14T14:23:23.883Z,58.22
2022-11-14T14:26:34.028Z,58.30
2022-11-14T14:29:43.481Z,58.48
2022-11-14T14:32:30.362Z,58.85
2022-11-14T14:35:39.090Z,58.70
2022-11-14T14:38:28.483Z,58.53
2022-11-14T14:41:20.534Z,58.92
2022-11-14T14:44:06.939Z,58.73
2022-11-14T14:46:55.696Z,59.12
2022-11-14T14:49:42.019Z,59.26
2022-11-14T14:52:37.120Z,59.11
2022-11-14T14:55:30.421Z,59.28
2022-11-14T14:58:26.120Z,58.83
2022-11-14T15:01:16.850Z,59.65
2022-11-14T15:04:08.697Z,59.28
2022-11-14T15:06:57.695Z,59.54
2022-11-14T15:09:59.791Z,59.44
2022-11-14T15:12:45.590Z,59.51
2022-11-14T15:15:33.679Z,59.52
2022-11-14T15:18:27.705Z,59.57
2022-11-14T15:21:25.697Z,59.37
2022-11-14T15:24:23.356Z,59.31
2022-11-14T15:27:17.835Z,59.11
2022-11-14T15:30:20.274Z,59.59
2022-11-14T15:33:28.447Z,59.50
2022-11-14T15:36:18.183Z,59.62
2022-11-14T15:39:27.095Z,59.01
2022-11-14T15:42:24.645Z,59.55
2022-11-14T15:45:25.089Z,59.03
2022-11-14T15:48:19.394Z,59.33
2022-11-14T15:51:09.224Z,59.32
2022-11-14T15:53:59.826Z,59.43
2022-11-14T15:56:50.108Z,59.62
2022-11-14T15:59:36.839Z,59.37
2022-11-14T16:02:29.864Z,59.40
2022-11-14T16:05:17.068Z,59.36
2022-11-14T16:08:04.127Z,59.41
2022-11-14T16:10:52.295Z,59.24
2022-11-14T16:13:37.770Z,59.66
2022-11-14T16:16:23.330Z,59.42
2022-11-14T16:19:10.773Z,59.49
2022-11-14T16:22:02.831Z,59.14
2022-11-14T16:24:48.954Z,59.61
2022-11-14T16:27:34.703Z,59.23
2022-11-14T16:30:21.557Z,59.25
2022-11-14T16:33:08.758Z,59.41
2022-11-14T16:35:54.322Z,59.60
2022-11-14T16:38:39.805Z,59.43
2022-11-14T16:41:25.360Z,59.47
2022-11-14T16:44:17.179Z,59.01
2022-11-14T16:47:03.423Z,59.30
2022-11-14T16:49:55.119Z,58.79
2022-11-14T16:52:40.948Z,59.14
2022-11-14T16:55:26.693Z,59.19
2022-11-14T16:58:12.247Z,58.87
2022-11-14T17:00:58.658Z,59.25
2022-11-14T17:03:44.389Z,59.36
2022-11-14T17:06:30.292Z,59.15
2022-11-14T17:09:16.437Z,59.41
2022-11-14T17:12:03.327Z,59.22
2022-11-14T17:14:48.943Z,58.80
2022-11-14T17:17:35.170Z,59.12
2022-11-14T17:20:21.147Z,59.27
2022-11-14T17:23:06.908Z,58.91
2022-11-14T17:25:56.506Z,58.71
2022-11-14T17:28:43.415Z,58.59
2022-11-14T17:31:33.723Z,58.92
2022-11-14T17:34:22.165Z,58.66
2022-11-14T17:37:07.758Z,58.56
2022-11-14T17:39:53.307Z,58.61
2022-11-14T17:42:39.334Z,58.29
2022-11-14T17:45:25.189Z,58.72
2022-11-14T17:48:13.093Z,58.39
2022-11-14T17:51:04.560Z,58.11
2022-11-14T17:53:50.320Z,58.07
2022-11-14T17:56:38.058Z,58.25
2022-11-14T17:59:27.463Z,58.28
2022-11-14T18:02:14.483Z,58.12
2022-11-14T18:05:00.138Z,58.38
2022-11-14T18:07:45.936Z,58.15
2022-11-14T18:10:31.785Z,58.10
2022-11-14T18:13:17.715Z,58.28
2022-11-14T18:16:21.338Z,57.40
2022-11-14T18:19:07.182Z,58.04
2022-11-14T18:21:53.998Z,57.83
2022-11-14T18:24:43.460Z,57.77
2022-11-14T18:27:32.104Z,57.35
2022-11-14T18:30:40.480Z,57.78
2022-11-14T18:33:23.896Z,57.61
2022-11-14T18:36:13.014Z,57.08
2022-11-14T18:38:58.589Z,57.44
2022-11-14T18:41:44.141Z,57.55
2022-11-14T18:44:30.032Z,57.45
2022-11-14T18:47:16.698Z,57.39
2022-11-14T18:50:04.020Z,57.57
2022-11-14T18:52:49.602Z,57.49
2022-11-14T18:55:41.581Z,56.98
2022-11-14T18:58:27.134Z,57.06
2022-11-14T19:01:22.025Z,56.77
2022-11-14T19:04:09.475Z,56.66
2022-11-14T19:06:56.385Z,56.60
2022-11-14T19:09:44.399Z,56.54
2022-11-14T19:12:30.419Z,56.50
2022-11-14T19:15:16.188Z,56.68
2022-11-14T19:18:02.061Z,56.06
2022-11-14T19:20:59.131Z,55.30
2022-11-14T19:23:44.717Z,56.52
2022-11-14T19:26:30.925Z,56.46
2022-11-14T19:29:16.737Z,56.34
2022-11-14T19:32:03.439Z,55.74
2022-11-14T19:34:49.227Z,56.00
2022-11-14T19:37:34.998Z,55.54
2022-11-14T19:40:20.868Z,55.83
2022-11-14T19:43:07.588Z,55.37
2022-11-14T19:45:53.182Z,55.53
2022-11-14T19:48:40.645Z,55.02
2022-11-14T19:51:29.916Z,55.46
2022-11-14T19:54:15.865Z,55.67
2022-11-14T19:57:01.667Z,55.72
2022-11-14T19:59:47.316Z,55.39
2022-11-14T20:02:32.866Z,55.31
2022-11-14T20:05:18.948Z,55.21
2022-11-14T20:08:04.590Z,55.18
2022-11-14T20:11:04.195Z,53.88
2022-11-14T20:13:50.452Z,54.99
2022-11-14T20:16:37.142Z,55.25
2022-11-14T20:19:22.734Z,55.38
2022-11-14T20:22:09.826Z,55.29
2022-11-14T20:24:55.257Z,55.32
2022-11-14T20:27:40.978Z,55.25
2022-11-14T20:30:27.283Z,55.34
2022-11-14T20:33:12.864Z,54.34
2022-11-14T20:36:02.923Z,54.19
2022-11-14T20:38:50.501Z,54.67
2022-11-14T20:41:36.208Z,54.96
2022-11-14T20:44:21.821Z,54.96
2022-11-14T20:47:10.869Z,54.40
2022-11-14T20:49:57.008Z,54.99
2022-11-14T20:52:44.768Z,54.65
2022-11-14T20:55:30.264Z,54.64
2022-11-14T20:58:16.104Z,54.49
2022-11-14T21:01:02.000Z,53.92
2022-11-14T21:03:49.053Z,54.32
2022-11-14T21:06:34.437Z,54.37
2022-11-14T21:09:19.948Z,54.52
2022-11-14T21:12:05.570Z,54.63
2022-11-14T21:14:51.044Z,54.50
2022-11-14T21:17:36.654Z,54.15
2022-11-14T21:20:22.168Z,54.40
2022-11-14T21:23:07.688Z,54.79
2022-11-14T21:26:00.320Z,54.69
2022-11-14T21:28:47.748Z,54.54
2022-11-14T21:31:39.149Z,53.73
2022-11-14T21:34:24.608Z,54.51
2022-11-14T21:37:10.010Z,54.53
2022-11-14T21:39:55.724Z,54.16
2022-11-14T21:42:48.405Z,54.46
2022-11-14T21:45:34.436Z,54.35
2022-11-14T21:48:19.823Z,54.21
2022-11-14T21:51:14.264Z,54.12
2022-11-14T21:54:00.047Z,54.41
2022-11-14T21:56:45.482Z,54.71
2022-11-14T21:59:31.576Z,54.63
2022-11-14T22:02:38.438Z,54.31
2022-11-14T22:05:26.493Z,54.59
2022-11-14T22:08:15.502Z,53.63
2022-11-14T22:11:04.636Z,54.23
2022-11-14T22:13:50.603Z,54.31
2022-11-14T22:16:36.227Z,53.58
2022-11-14T22:19:21.793Z,54.00
2022-11-14T22:22:08.157Z,53.46
2022-11-14T22:24:53.690Z,53.86
2022-11-14T22:27:39.396Z,53.76
2022-11-14T22:30:24.814Z,53.82
2022-11-14T22:33:10.718Z,53.91
2022-11-14T22:36:01.127Z,53.39
2022-11-14T22:38:47.088Z,53.82
2022-11-14T22:41:33.892Z,53.60
2022-11-14T22:44:19.915Z,53.47
2022-11-14T22:47:05.392Z,53.74
2022-11-14T22:49:50.639Z,53.51
2022-11-14T22:52:35.754Z,53.44
2022-11-14T22:55:21.181Z,53.33
2022-11-14T22:58:06.432Z,53.74
2022-11-14T23:00:52.692Z,53.68
2022-11-14T23:03:39.138Z,53.74
2022-11-14T23:06:25.308Z,53.30
2022-11-14T23:09:11.817Z,53.27
2022-11-14T23:11:57.584Z,53.66
2022-11-14T23:14:43.186Z,53.53
2022-11-14T23:17:30.240Z,53.60
2022-11-14T23:20:16.908Z,53.21
2022-11-14T23:23:03.390Z,53.47
2022-11-14T23:25:48.896Z,53.66
2022-11-14T23:28:34.507Z,53.50
2022-11-14T23:31:20.379Z,53.55
2022-11-14T23:34:05.953Z,53.77
2022-11-14T23:36:51.607Z,53.93
2022-11-14T23:39:37.356Z,53.97
2022-11-14T23:42:23.254Z,54.23
2022-11-14T23:45:09.012Z,53.79
2022-11-14T23:47:54.496Z,54.07
2022-11-14T23:50:39.986Z,54.38
2022-11-14T23:53:25.735Z,54.01
2022-11-14T23:56:13.617Z,53.91
2022-11-14T23:58:59.033Z,54.45
